Time;durP1;ratioP1;P1;durP2;ratioP2;P2;SDS_P1;SDS_P2;PMS_P1;PMS_P2;Temp;Humidity;BMP_temperature;BMP_pressure;BME280_temperature;BME280_humidity;BME280_pressure;Samples;Min_cycle;Max_cycle;Signal;HPM_P1;HPM_P2
2023/06/03 00:01:12;;;;;;;1.60;1.60;;;22.50;59.70;;;;;;5110155;27;44125;-69
2023/06/03 00:03:44;;;;;;;1.70;1.70;;;22.50;59.60;;;;;;5110189;27;43639;-69
2023/06/03 00:06:13;;;;;;;1.50;1.50;;;22.40;59.20;;;;;;5108883;27;45036;-69
2023/06/03 00:08:42;;;;;;;1.60;1.60;;;22.30;59.20;;;;;;5109463;27;43391;-70
2023/06/03 00:11:11;;;;;;;1.80;1.80;;;22.30;59.40;;;;;;5110453;27;43379;-69
2023/06/03 00:13:39;;;;;;;1.60;1.60;;;22.30;59.50;;;;;;5109171;27;43606;-69
2023/06/03 00:16:10;;;;;;;1.70;1.70;;;22.30;59.60;;;;;;5109906;27;43382;-69
2023/06/03 00:18:38;;;;;;;1.60;1.60;;;22.20;59.60;;;;;;5109931;27;43450;-70
2023/06/03 00:21:09;;;;;;;1.80;1.80;;;22.20;59.60;;;;;;5109697;27;43452;-68
2023/06/03 00:23:38;;;;;;;1.70;1.70;;;22.20;59.70;;;;;;5107296;27;43681;-68
2023/06/03 00:26:06;;;;;;;2.10;2.00;;;22.20;60.30;;;;;;5109088;27;43409;-68
2023/06/03 00:28:34;;;;;;;1.70;1.70;;;22.20;60.70;;;;;;5109453;27;43433;-72
2023/06/03 00:31:02;;;;;;;1.70;1.67;;;22.30;60.30;;;;;;5109240;27;43490;-70
2023/06/03 00:33:32;;;;;;;1.67;1.67;;;22.50;60.20;;;;;;5108890;27;43944;-73
2023/06/03 00:36:01;;;;;;;1.60;1.60;;;22.60;59.60;;;;;;5109440;28;43378;-70
2023/06/03 00:38:29;;;;;;;1.50;1.50;;;22.80;59.00;;;;;;5108216;27;43422;-69
2023/06/03 00:40:57;;;;;;;1.70;1.70;;;23.00;58.60;;;;;;5109750;27;43417;-70
2023/06/03 00:43:25;;;;;;;1.70;1.70;;;23.20;58.30;;;;;;5105421;27;45654;-70
2023/06/03 00:45:53;;;;;;;1.70;1.70;;;23.30;58.00;;;;;;5108354;27;44270;-70
2023/06/03 00:48:21;;;;;;;1.90;1.90;;;23.40;57.70;;;;;;5108010;28;43455;-69
2023/06/03 00:50:50;;;;;;;1.60;1.60;;;23.50;57.50;;;;;;5108299;28;43423;-70
2023/06/03 00:53:18;;;;;;;1.60;1.60;;;23.60;57.30;;;;;;5108283;27;45397;-70
2023/06/03 00:55:46;;;;;;;1.60;1.60;;;23.60;57.20;;;;;;5107911;27;44681;-69
2023/06/03 00:58:14;;;;;;;1.40;1.40;;;23.50;57.60;;;;;;5108574;28;43414;-70
2023/06/03 01:00:42;;;;;;;1.70;1.60;;;23.40;58.10;;;;;;5102382;28;43588;-70
2023/06/03 01:03:13;;;;;;;2.07;2.07;;;23.20;58.30;;;;;;5083275;28;45868;-71
2023/06/03 01:05:42;;;;;;;1.40;1.40;;;23.20;58.60;;;;;;5084441;28;45014;-70
2023/06/03 01:08:14;;;;;;;1.60;1.60;;;23.10;58.80;;;;;;5087977;27;43370;-70
2023/06/03 01:10:46;;;;;;;1.50;1.50;;;22.90;58.90;;;;;;5085227;27;43829;-69
2023/06/03 01:13:17;;;;;;;1.60;1.60;;;22.80;59.50;;;;;;5084576;27;44792;-70
2023/06/03 01:15:45;;;;;;;1.40;1.40;;;22.80;59.50;;;;;;5093787;27;44744;-70
2023/06/03 01:18:14;;;;;;;1.70;1.70;;;22.90;59.30;;;;;;5086046;28;44078;-70
2023/06/03 01:20:42;;;;;;;1.60;1.60;;;22.90;58.80;;;;;;5086707;27;43452;-70
2023/06/03 01:23:19;;;;;;;1.60;1.60;;;22.90;59.00;;;;;;5084972;27;43657;-70
2023/06/03 01:25:50;;;;;;;1.40;1.40;;;22.90;59.50;;;;;;5087151;28;43428;-69
2023/06/03 01:28:20;;;;;;;1.53;1.53;;;22.80;59.40;;;;;;5087178;27;43495;-70
2023/06/03 01:30:48;;;;;;;1.63;1.63;;;22.70;59.80;;;;;;5087830;27;43441;-69
2023/06/03 01:33:17;;;;;;;1.40;1.40;;;22.60;60.00;;;;;;5082226;27;43679;-71
2023/06/03 01:35:46;;;;;;;1.57;1.57;;;22.60;60.00;;;;;;5086692;27;44072;-70
2023/06/03 01:38:15;;;;;;;1.60;1.60;;;22.60;60.10;;;;;;5086921;27;43348;-70
2023/06/03 01:40:44;;;;;;;1.37;1.37;;;22.50;59.80;;;;;;5084244;28;43568;-70
2023/06/03 01:43:12;;;;;;;1.70;1.70;;;22.50;60.80;;;;;;5086701;27;43926;-69
2023/06/03 01:45:40;;;;;;;1.40;1.40;;;22.50;60.80;;;;;;5084963;28;43537;-70
2023/06/03 01:48:08;;;;;;;1.80;1.80;;;22.50;60.30;;;;;;5085527;27;43430;-70
2023/06/03 01:50:37;;;;;;;1.60;1.60;;;22.60;59.90;;;;;;5087511;27;43457;-70
2023/06/03 01:53:05;;;;;;;1.77;1.77;;;22.70;59.80;;;;;;5087411;27;43931;-70
2023/06/03 01:55:34;;;;;;;1.50;1.50;;;22.70;59.90;;;;;;5085302;28;44334;-69
2023/06/03 01:58:03;;;;;;;1.47;1.47;;;22.70;60.00;;;;;;5100654;27;43513;-69
2023/06/03 02:00:31;;;;;;;1.53;1.53;;;22.60;59.80;;;;;;5086272;28;43612;-70
2023/06/03 02:03:00;;;;;;;1.70;1.70;;;22.50;60.30;;;;;;5084938;28;46655;-69
2023/06/03 02:05:28;;;;;;;1.40;1.40;;;22.50;60.50;;;;;;5084385;27;43427;-70
2023/06/03 02:07:56;;;;;;;1.30;1.30;;;22.50;60.70;;;;;;5085206;27;43436;-70
2023/06/03 02:10:24;;;;;;;1.50;1.50;;;22.40;60.30;;;;;;5090703;27;43525;-70
2023/06/03 02:12:53;;;;;;;1.60;1.50;;;22.40;60.70;;;;;;5089397;28;43863;-70
2023/06/03 02:15:21;;;;;;;1.50;1.50;;;22.40;61.10;;;;;;5088948;27;44522;-69
2023/06/03 02:17:49;;;;;;;1.63;1.63;;;22.40;61.10;;;;;;5090418;27;43445;-69
2023/06/03 02:20:17;;;;;;;1.50;1.50;;;22.30;60.60;;;;;;5090422;27;43911;-70
2023/06/03 02:22:45;;;;;;;1.70;1.70;;;22.30;60.20;;;;;;5088186;27;43854;-69
2023/06/03 02:25:14;;;;;;;1.43;1.43;;;22.30;61.20;;;;;;5088918;27;44660;-70
2023/06/03 02:27:43;;;;;;;1.80;1.77;;;22.40;61.90;;;;;;5088260;28;43476;-70
2023/06/03 02:30:14;;;;;;;1.67;1.57;;;22.40;60.80;;;;;;5091342;27;44620;-70
2023/06/03 02:32:43;;;;;;;1.60;1.50;;;22.50;60.30;;;;;;5088091;28;45703;-70
2023/06/03 02:35:17;;;;;;;1.60;1.60;;;22.60;60.10;;;;;;5088471;28;44555;-70
2023/06/03 02:37:45;;;;;;;1.50;1.50;;;22.60;60.30;;;;;;5084260;28;43401;-70
2023/06/03 02:40:13;;;;;;;1.57;1.57;;;22.60;60.50;;;;;;5088863;27;43522;-70
2023/06/03 02:42:41;;;;;;;1.53;1.53;;;22.50;60.20;;;;;;5088240;28;44032;-70
2023/06/03 02:45:11;;;;;;;1.60;1.60;;;22.50;60.90;;;;;;5087918;27;43595;-74
2023/06/03 02:47:40;;;;;;;1.67;1.60;;;22.50;60.90;;;;;;5087385;28;43659;-70
2023/06/03 02:50:09;;;;;;;1.60;1.60;;;22.40;60.90;;;;;;5089848;27;43525;-70
2023/06/03 02:52:37;;;;;;;1.50;1.50;;;22.40;60.40;;;;;;5088365;27;44685;-70
2023/06/03 02:55:07;;;;;;;1.73;1.73;;;22.30;60.80;;;;;;5085705;28;44861;-69
2023/06/03 02:57:36;;;;;;;1.90;1.90;;;22.30;61.20;;;;;;5088367;28;44066;-69
2023/06/03 03:00:10;;;;;;;1.50;1.50;;;22.30;61.20;;;;;;5089998;28;43488;-70
2023/06/03 03:02:39;;;;;;;1.50;1.40;;;22.30;60.70;;;;;;5088479;27;43864;-69
2023/06/03 03:05:08;;;;;;;1.53;1.53;;;22.30;60.30;;;;;;5087910;28;44977;-69
2023/06/03 03:07:36;;;;;;;1.80;1.80;;;22.20;61.30;;;;;;5089052;28;43420;-69
2023/06/03 03:10:05;;;;;;;1.50;1.50;;;22.20;61.30;;;;;;5087788;27;43489;-70
2023/06/03 03:12:34;;;;;;;1.50;1.50;;;22.30;61.10;;;;;;5077922;28;44007;-70
2023/06/03 03:15:03;;;;;;;1.60;1.60;;;22.40;60.60;;;;;;5087595;28;43432;-69
2023/06/03 03:17:32;;;;;;;1.57;1.57;;;22.50;60.40;;;;;;5087579;28;43549;-70
2023/06/03 03:20:03;;;;;;;1.47;1.47;;;22.60;60.60;;;;;;5088040;27;43549;-70
2023/06/03 03:22:32;;;;;;;1.57;1.47;;;22.60;60.70;;;;;;5087225;28;46140;-69
2023/06/03 03:25:00;;;;;;;1.23;1.23;;;22.50;60.60;;;;;;5087368;28;44801;-70
2023/06/03 03:27:29;;;;;;;1.50;1.50;;;22.40;60.50;;;;;;5089098;27;43475;-70
2023/06/03 03:29:57;;;;;;;1.40;1.40;;;22.40;61.20;;;;;;5086627;28;43601;-70
2023/06/03 03:32:26;;;;;;;1.70;1.70;;;22.40;61.30;;;;;;5088059;28;43859;-69
2023/06/03 03:35:04;;;;;;;1.47;1.47;;;22.30;60.70;;;;;;5089396;28;43391;-69
2023/06/03 03:37:33;;;;;;;1.43;1.43;;;22.30;60.30;;;;;;5081722;28;43930;-69
2023/06/03 03:40:01;;;;;;;1.47;1.47;;;22.30;61.30;;;;;;5086748;28;43464;-69
2023/06/03 03:42:29;;;;;;;1.40;1.40;;;22.30;61.50;;;;;;5087429;28;44722;-70
2023/06/03 03:44:58;;;;;;;1.70;1.70;;;22.30;61.20;;;;;;5086899;28;43453;-70
2023/06/03 03:47:27;;;;;;;1.30;1.30;;;22.20;60.60;;;;;;5086978;28;43394;-70
2023/06/03 03:49:55;;;;;;;1.50;1.50;;;22.20;61.40;;;;;;5087711;27;43415;-70
2023/06/03 03:52:30;;;;;;;1.60;1.60;;;22.20;61.60;;;;;;5088826;27;45036;-69
2023/06/03 03:55:01;;;;;;;1.50;1.50;;;22.30;61.40;;;;;;5081697;27;44989;-68
2023/06/03 03:57:31;;;;;;;1.40;1.40;;;22.40;61.10;;;;;;5082579;28;43859;-72
2023/06/03 03:59:59;;;;;;;1.43;1.43;;;22.50;61.00;;;;;;5089327;27;43483;-70
2023/06/03 04:02:28;;;;;;;1.30;1.30;;;22.50;60.90;;;;;;5088343;27;44720;-70
2023/06/03 04:04:58;;;;;;;1.67;1.67;;;22.50;60.80;;;;;;5086634;28;44968;-69
2023/06/03 04:07:30;;;;;;;1.40;1.40;;;22.40;60.20;;;;;;5087129;27;43953;-75
2023/06/03 04:09:58;;;;;;;1.60;1.30;;;22.40;61.00;;;;;;5088180;27;43736;-70
2023/06/03 04:12:32;;;;;;;1.53;1.53;;;22.40;61.40;;;;;;5087876;27;43677;-70
2023/06/03 04:15:02;;;;;;;1.30;1.30;;;22.30;61.30;;;;;;5086282;28;44660;-70
2023/06/03 04:17:32;;;;;;;1.43;1.43;;;22.30;60.70;;;;;;5084127;28;43407;-70
2023/06/03 04:20:01;;;;;;;1.50;1.50;;;22.30;60.50;;;;;;5087232;28;44175;-71
2023/06/03 04:22:31;;;;;;;1.23;1.23;;;22.20;61.30;;;;;;5087604;27;43836;-70
2023/06/03 04:25:03;;;;;;;1.23;1.23;;;22.20;61.50;;;;;;5087022;27;44651;-70
2023/06/03 04:27:40;;;;;;;1.50;1.50;;;22.20;61.10;;;;;;5087025;27;43482;-70
2023/06/03 04:30:11;;;;;;;1.30;1.30;;;22.20;60.60;;;;;;5087193;27;43388;-70
2023/06/03 04:32:39;;;;;;;1.30;1.30;;;22.20;61.40;;;;;;5085611;28;44726;-69
2023/06/03 04:35:08;;;;;;;1.30;1.30;;;22.20;61.60;;;;;;5086600;27;44429;-69
2023/06/03 04:37:39;;;;;;;1.40;1.40;;;22.20;61.60;;;;;;5086683;28;43387;-70
2023/06/03 04:40:11;;;;;;;1.30;1.30;;;22.30;61.30;;;;;;5081708;27;43544;-69
2023/06/03 04:42:42;;;;;;;1.40;1.40;;;22.50;61.10;;;;;;5086583;28;45033;-70
2023/06/03 04:45:12;;;;;;;1.23;1.23;;;22.50;61.00;;;;;;5086517;28;43477;-71
2023/06/03 04:47:42;;;;;;;1.40;1.40;;;22.50;60.90;;;;;;5088109;27;43390;-70
2023/06/03 04:50:19;;;;;;;1.40;1.40;;;22.50;60.40;;;;;;5086443;28;43585;-70
2023/06/03 04:52:48;;;;;;;1.30;1.30;;;22.40;60.80;;;;;;5084765;28;45532;-69
2023/06/03 04:55:18;;;;;;;1.30;1.30;;;22.40;61.30;;;;;;5086542;27;44811;-69
2023/06/03 04:57:50;;;;;;;1.40;1.40;;;22.40;61.30;;;;;;5086407;28;43966;-70
2023/06/03 05:00:20;;;;;;;1.40;1.40;;;22.30;60.60;;;;;;5085767;28;43474;-70
2023/06/03 05:02:56;;;;;;;1.20;1.20;;;22.30;60.60;;;;;;5085837;27;43924;-69
2023/06/03 05:05:27;;;;;;;1.40;1.40;;;22.20;61.50;;;;;;5086387;28;43944;-70
2023/06/03 05:07:56;;;;;;;1.20;1.20;;;22.20;61.60;;;;;;5086650;27;43515;-70
2023/06/03 05:10:27;;;;;;;1.23;1.23;;;22.20;61.10;;;;;;5086369;28;43460;-70
2023/06/03 05:12:58;;;;;;;1.30;1.30;;;22.20;60.60;;;;;;5085942;27;44136;-70
2023/06/03 05:15:27;;;;;;;1.33;1.33;;;22.20;61.50;;;;;;5086119;28;45959;-69
2023/06/03 05:17:58;;;;;;;1.30;1.30;;;22.20;61.50;;;;;;5086220;28;43424;-70
2023/06/03 05:20:26;;;;;;;1.60;1.60;;;22.30;60.90;;;;;;5081607;27;43407;-70
2023/06/03 05:22:54;;;;;;;1.80;1.50;;;22.40;60.30;;;;;;5082960;27;45781;-70
2023/06/03 05:25:23;;;;;;;1.80;1.60;;;22.50;59.90;;;;;;5086046;28;44453;-70
2023/06/03 05:27:51;;;;;;;1.40;1.40;;;22.50;59.90;;;;;;5082129;28;43611;-69
2023/06/03 05:30:34;;;;;;;1.33;1.33;;;22.50;59.50;;;;;;5082239;28;43543;-69
2023/06/03 05:33:03;;;;;;;1.47;1.47;;;22.40;59.00;;;;;;5081881;28;46357;-69
2023/06/03 05:35:31;;;;;;;1.50;1.50;;;22.30;59.80;;;;;;5085720;27;44737;-70
2023/06/03 05:37:59;;;;;;;1.70;1.70;;;22.30;60.10;;;;;;5084838;28;43380;-70
2023/06/03 05:40:27;;;;;;;1.57;1.47;;;22.30;59.80;;;;;;5083202;28;43529;-70
2023/06/03 05:42:56;;;;;;;1.40;1.40;;;22.30;59.40;;;;;;5083927;27;45993;-70
2023/06/03 05:45:26;;;;;;;1.50;1.50;;;22.20;58.90;;;;;;5086119;27;43482;-70
2023/06/03 05:47:56;;;;;;;1.80;1.70;;;22.20;59.80;;;;;;5076610;28;43520;-74
2023/06/03 05:50:24;;;;;;;2.13;1.70;;;22.20;60.20;;;;;;5078605;28;43463;-69
2023/06/03 05:52:55;;;;;;;1.47;1.40;;;22.10;59.10;;;;;;5084498;28;46004;-70
2023/06/03 05:55:24;;;;;;;1.53;1.53;;;22.10;58.90;;;;;;5085220;28;44781;-70
2023/06/03 05:57:52;;;;;;;1.63;1.63;;;22.10;58.90;;;;;;5082025;27;43394;-70
2023/06/03 06:00:20;;;;;;;3.93;1.90;;;22.10;60.00;;;;;;5082080;28;44046;-69
2023/06/03 06:02:52;;;;;;;2.73;2.53;;;22.20;59.90;;;;;;5082707;28;43961;-70
2023/06/03 06:05:22;;;;;;;3.53;2.93;;;22.20;57.80;;;;;;5080946;28;43473;-69
2023/06/03 06:07:50;;;;;;;4.73;2.70;;;22.30;56.00;;;;;;5085716;28;43834;-70
2023/06/03 06:10:18;;;;;;;4.83;2.80;;;22.30;55.50;;;;;;5084983;28;43907;-69
2023/06/03 06:12:47;;;;;;;2.63;2.47;;;22.30;56.90;;;;;;5084044;28;45741;-69
2023/06/03 06:15:15;;;;;;;4.13;2.93;;;22.30;57.20;;;;;;5081569;28;44860;-70
2023/06/03 06:17:43;;;;;;;2.90;2.60;;;22.20;56.70;;;;;;5084737;27;44254;-70
2023/06/03 06:20:12;;;;;;;3.03;2.80;;;22.20;55.20;;;;;;5083579;27;43437;-70
2023/06/03 06:22:42;;;;;;;2.40;2.30;;;22.10;55.80;;;;;;5084210;28;45640;-69
2023/06/03 06:25:11;;;;;;;3.07;2.40;;;22.10;56.50;;;;;;5084601;28;44022;-69
2023/06/03 06:27:40;;;;;;;2.67;2.47;;;22.10;57.10;;;;;;5084812;28;43497;-69
2023/06/03 06:30:09;;;;;;;2.60;2.40;;;22.00;57.60;;;;;;5085227;28;43444;-69
2023/06/03 06:32:40;;;;;;;2.40;2.30;;;22.00;58.10;;;;;;5086493;27;43807;-69
2023/06/03 06:35:09;;;;;;;2.10;2.00;;;22.00;57.20;;;;;;5085887;27;43395;-70
2023/06/03 06:37:37;;;;;;;2.40;2.30;;;22.00;57.20;;;;;;5086228;27;43365;-69
2023/06/03 06:40:08;;;;;;;2.30;2.20;;;22.00;56.90;;;;;;5082311;27;43628;-69
2023/06/03 06:42:41;;;;;;;2.60;2.40;;;22.00;58.50;;;;;;5084390;27;45908;-71
2023/06/03 06:45:23;;;;;;;2.33;2.23;;;22.00;58.80;;;;;;5081402;28;45083;-70
2023/06/03 06:47:54;;;;;;;2.93;2.70;;;22.10;58.40;;;;;;5084226;27;43368;-69
2023/06/03 06:50:35;;;;;;;4.27;2.63;;;22.20;56.30;;;;;;5086893;27;43379;-70
2023/06/03 06:53:03;;;;;;;3.77;2.30;;;22.30;55.40;;;;;;5085631;27;44071;-69
2023/06/03 06:55:44;;;;;;;2.53;2.30;;;22.30;55.80;;;;;;5087245;27;44532;-69
2023/06/03 06:58:14;;;;;;;2.40;2.30;;;22.30;55.90;;;;;;5088503;28;44091;-70
2023/06/03 07:00:43;;;;;;;2.57;2.23;;;22.20;56.10;;;;;;5089115;28;43488;-70
2023/06/03 07:03:12;;;;;;;2.83;2.30;;;22.10;57.70;;;;;;5088422;28;45832;-69
2023/06/03 07:05:41;;;;;;;2.43;2.23;;;22.10;57.80;;;;;;5083278;28;43930;-70
2023/06/03 07:08:09;;;;;;;2.43;2.33;;;22.10;57.10;;;;;;5082121;28;43478;-70
2023/06/03 07:10:37;;;;;;;2.50;2.30;;;22.00;57.10;;;;;;5090449;27;43584;-70
2023/06/03 07:13:08;;;;;;;2.67;2.57;;;22.00;56.70;;;;;;5098709;27;46133;-71
2023/06/03 07:15:39;;;;;;;3.50;2.50;;;22.00;58.30;;;;;;5087975;28;43984;-70
2023/06/03 07:18:09;;;;;;;2.30;2.20;;;22.00;58.20;;;;;;5088421;28;43456;-73
2023/06/03 07:20:39;;;;;;;2.50;2.30;;;22.00;57.40;;;;;;5083535;28;43862;-69
2023/06/03 07:23:10;;;;;;;2.67;2.47;;;22.00;57.10;;;;;;5087041;28;45372;-69
2023/06/03 07:25:41;;;;;;;5.37;2.30;;;21.90;58.20;;;;;;5087848;28;44922;-70
2023/06/03 07:28:11;;;;;;;3.70;2.23;;;22.00;58.80;;;;;;5081657;27;43441;-70
2023/06/03 07:30:40;;;;;;;2.57;2.27;;;22.00;58.80;;;;;;5090126;27;43552;-70
2023/06/03 07:33:09;;;;;;;2.27;2.17;;;22.20;58.50;;;;;;5088086;28;44019;-69
2023/06/03 07:35:37;;;;;;;2.20;2.10;;;22.30;58.30;;;;;;5084718;28;44838;-69
2023/06/03 07:38:06;;;;;;;2.03;1.93;;;22.30;58.50;;;;;;5089860;27;43441;-69
2023/06/03 07:40:43;;;;;;;1.87;1.77;;;22.30;58.70;;;;;;5085063;27;43496;-69
2023/06/03 07:43:15;;;;;;;2.43;2.30;;;22.20;58.00;;;;;;5086221;28;43945;-70
2023/06/03 07:45:43;;;;;;;1.93;1.87;;;22.10;58.50;;;;;;5088233;28;44758;-69
2023/06/03 07:48:11;;;;;;;2.27;2.17;;;22.10;58.90;;;;;;5084895;27;43388;-69
2023/06/03 07:50:39;;;;;;;4.50;2.70;;;22.10;58.60;;;;;;5082397;27;43344;-70
2023/06/03 07:53:07;;;;;;;14.30;5.00;;;22.10;58.30;;;;;;5080376;28;43747;-69
2023/06/03 07:55:39;;;;;;;29.63;7.80;;;22.00;58.30;;;;;;5081630;28;44383;-69
2023/06/03 07:58:07;;;;;;;29.67;8.50;;;22.00;58.90;;;;;;5078583;28;43376;-69
2023/06/03 08:00:36;;;;;;;27.63;8.77;;;22.00;59.30;;;;;;5082986;27;43440;-69
2023/06/03 08:03:04;;;;;;;21.97;9.03;;;22.00;58.80;;;;;;5089182;27;43610;-69
2023/06/03 08:05:34;;;;;;;19.47;8.43;;;22.00;58.60;;;;;;5088377;28;43819;-69
2023/06/03 08:08:06;;;;;;;26.27;10.40;;;22.00;58.60;;;;;;5088064;27;43478;-69
2023/06/03 08:10:34;;;;;;;30.10;10.10;;;21.90;59.10;;;;;;5089489;27;43467;-71
2023/06/03 08:13:02;;;;;;;25.57;9.53;;;22.00;59.40;;;;;;5088679;28;43848;-69
2023/06/03 08:15:32;;;;;;;30.47;10.67;;;22.00;59.20;;;;;;5089383;27;43935;-71
2023/06/03 08:18:03;;;;;;;22.53;8.63;;;22.10;59.00;;;;;;5087045;28;43400;-69
2023/06/03 08:20:31;;;;;;;24.80;8.43;;;22.20;57.80;;;;;;5083265;28;43460;-69
2023/06/03 08:22:59;;;;;;;23.07;8.70;;;22.20;58.00;;;;;;5087636;28;43874;-71
2023/06/03 08:25:27;;;;;;;19.20;8.20;;;22.20;58.20;;;;;;5087813;28;45117;-70
2023/06/03 08:27:55;;;;;;;19.10;8.70;;;22.10;58.10;;;;;;5088993;27;44070;-69
2023/06/03 08:30:24;;;;;;;20.40;8.27;;;22.10;58.80;;;;;;5089439;28;43425;-70
2023/06/03 08:32:52;;;;;;;23.17;8.60;;;22.10;59.30;;;;;;5088291;28;43990;-70
2023/06/03 08:35:22;;;;;;;16.27;7.70;;;22.00;58.90;;;;;;5087713;27;43770;-71
2023/06/03 08:37:50;;;;;;;19.97;7.93;;;22.00;58.70;;;;;;5086323;28;44067;-70
2023/06/03 08:40:21;;;;;;;25.07;8.40;;;22.00;58.70;;;;;;5084535;28;43824;-69
2023/06/03 08:42:49;;;;;;;22.30;8.37;;;22.00;59.40;;;;;;5087039;28;45952;-69
2023/06/03 08:45:17;;;;;;;18.97;7.97;;;22.00;59.60;;;;;;5093767;27;43974;-69
2023/06/03 08:47:57;;;;;;;13.90;7.07;;;22.00;59.50;;;;;;5088665;28;43394;-69
2023/06/03 08:50:30;;;;;;;15.33;7.70;;;22.10;59.50;;;;;;5088962;27;43518;-69
2023/06/03 08:52:58;;;;;;;19.13;7.17;;;22.10;58.90;;;;;;5088610;27;44459;-70
2023/06/03 08:55:26;;;;;;;15.23;7.70;;;22.00;59.40;;;;;;5088811;27;43394;-69
2023/06/03 08:57:58;;;;;;;16.87;7.83;;;22.10;59.60;;;;;;5087242;28;43931;-70
2023/06/03 09:00:26;;;;;;;15.33;7.33;;;22.00;59.40;;;;;;5089081;27;43361;-69
2023/06/03 09:02:54;;;;;;;15.77;7.27;;;22.00;58.80;;;;;;5088199;27;43677;-69
2023/06/03 09:05:22;;;;;;;16.50;7.30;;;22.00;58.90;;;;;;5086184;27;44766;-69
2023/06/03 09:07:52;;;;;;;16.00;7.37;;;22.00;59.60;;;;;;5088583;27;43441;-69
2023/06/03 09:10:20;;;;;;;11.93;6.67;;;22.00;59.60;;;;;;5088338;28;44028;-70
2023/06/03 09:12:49;;;;;;;13.63;6.70;;;22.00;59.20;;;;;;5088517;27;43964;-69
2023/06/03 09:15:17;;;;;;;12.10;6.73;;;21.90;59.10;;;;;;5088297;28;43429;-69
2023/06/03 09:17:45;;;;;;;15.90;7.37;;;21.90;59.40;;;;;;5087928;27;43386;-69
2023/06/03 09:20:13;;;;;;;14.27;7.13;;;21.90;59.90;;;;;;5086821;28;43486;-70
2023/06/03 09:22:42;;;;;;;11.93;6.60;;;22.00;59.90;;;;;;5086143;27;43590;-70
2023/06/03 09:25:11;;;;;;;9.93;6.10;;;22.10;59.70;;;;;;5086670;28;44391;-69
2023/06/03 09:27:40;;;;;;;11.73;6.40;;;22.20;59.60;;;;;;5087829;28;43564;-69
2023/06/03 09:30:09;;;;;;;10.47;5.87;;;22.20;59.60;;;;;;5088285;27;43986;-69
2023/06/03 09:32:37;;;;;;;9.23;5.90;;;22.20;59.10;;;;;;5088047;27;43937;-69
2023/06/03 09:35:06;;;;;;;11.47;6.57;;;22.10;58.90;;;;;;5086146;28;45008;-70
2023/06/03 09:37:34;;;;;;;9.70;6.07;;;22.10;59.10;;;;;;5087092;28;43344;-70
2023/06/03 09:40:03;;;;;;;9.73;5.97;;;22.10;59.80;;;;;;5087904;28;43473;-69
2023/06/03 09:42:42;;;;;;;11.37;6.47;;;22.00;59.40;;;;;;5087677;27;43840;-70
2023/06/03 09:45:23;;;;;;;9.60;5.93;;;22.00;59.20;;;;;;5087751;27;43375;-70
2023/06/03 09:47:51;;;;;;;10.17;5.80;;;22.00;59.30;;;;;;5087896;28;43414;-69
2023/06/03 09:50:19;;;;;;;10.40;5.70;;;21.90;59.80;;;;;;5088029;27;43374;-69
2023/06/03 09:52:46;;;;;;;7.07;5.30;;;21.90;59.80;;;;;;5085334;28;45836;-74
2023/06/03 09:55:15;;;;;;;9.50;5.63;;;21.90;59.50;;;;;;5088398;27;43462;-70
2023/06/03 09:58:00;;;;;;;9.00;5.23;;;21.90;59.40;;;;;;5084401;27;43399;-70
2023/06/03 10:00:27;;;;;;;9.47;5.53;;;21.90;59.40;;;;;;5082959;27;43633;-70
2023/06/03 10:03:06;;;;;;;8.77;5.23;;;21.90;60.00;;;;;;5074020;28;44211;-70
2023/06/03 10:05:34;;;;;;;10.17;5.77;;;22.00;60.30;;;;;;5074314;28;43925;-69
2023/06/03 10:08:03;;;;;;;6.83;4.87;;;22.10;60.20;;;;;;5078716;27;43596;-72
2023/06/03 10:10:31;;;;;;;8.13;5.43;;;22.20;59.90;;;;;;5080066;28;43419;-71
2023/06/03 10:13:05;;;;;;;7.90;5.07;;;22.20;59.80;;;;;;5078377;28;44414;-69
2023/06/03 10:15:34;;;;;;;9.57;4.90;;;22.20;59.40;;;;;;5081246;28;43486;-71
2023/06/03 10:18:02;;;;;;;6.37;4.97;;;22.20;59.00;;;;;;5076625;28;43485;-70
2023/06/03 10:20:34;;;;;;;5.37;4.80;;;22.10;58.90;;;;;;5084648;27;43467;-71
2023/06/03 10:23:02;;;;;;;6.37;4.53;;;22.00;59.80;;;;;;5080628;28;43730;-70
2023/06/03 10:25:31;;;;;;;7.40;4.50;;;22.00;59.50;;;;;;5080659;28;43351;-71
2023/06/03 10:28:01;;;;;;;5.33;4.73;;;22.00;59.00;;;;;;5079374;28;43445;-69
2023/06/03 10:30:29;;;;;;;6.07;4.53;;;22.00;59.40;;;;;;5079934;28;43402;-69
2023/06/03 10:32:58;;;;;;;5.63;4.43;;;22.00;59.60;;;;;;5083854;28;44622;-69
2023/06/03 10:35:26;;;;;;;4.83;4.27;;;22.00;59.50;;;;;;5082638;27;43455;-69
2023/06/03 10:37:54;;;;;;;4.80;4.40;;;21.90;59.20;;;;;;5082596;27;43956;-69
2023/06/03 10:40:22;;;;;;;7.50;4.97;;;21.90;59.40;;;;;;5084402;28;43335;-70
2023/06/03 10:42:50;;;;;;;5.67;5.07;;;21.90;59.50;;;;;;5081623;28;45868;-70
2023/06/03 10:45:20;;;;;;;6.23;4.77;;;21.90;60.00;;;;;;5081613;28;43408;-71
2023/06/03 10:47:48;;;;;;;4.70;4.17;;;21.90;59.80;;;;;;5082454;27;43390;-70
2023/06/03 10:50:20;;;;;;;4.60;4.20;;;21.90;59.60;;;;;;5079276;28;43402;-69
2023/06/03 10:53:04;;;;;;;5.30;4.33;;;21.90;59.50;;;;;;5084232;28;45467;-69
2023/06/03 10:55:35;;;;;;;5.30;4.30;;;21.90;59.70;;;;;;5079977;28;43455;-70
2023/06/03 10:58:07;;;;;;;5.53;3.90;;;21.90;60.10;;;;;;5087463;27;43477;-69
2023/06/03 11:00:56;;;;;;;4.73;4.30;;;22.00;60.30;;;;;;5080903;28;43490;-70
2023/06/03 11:03:24;;;;;;;4.77;4.30;;;22.10;60.10;;;;;;5098444;27;45848;-69
2023/06/03 11:05:53;;;;;;;4.90;4.30;;;22.20;59.90;;;;;;5082517;27;44702;-70
2023/06/03 11:08:57;;;;;;;4.63;4.20;;;22.30;59.50;;;;;;5086409;28;43527;-70
2023/06/03 11:12:03;;;;;;;4.07;3.77;;;22.20;58.80;;;;;;5082953;28;43427;-70
2023/06/03 11:14:53;;;;;;;4.33;4.00;;;22.20;59.00;;;;;;5080997;28;43693;-70
2023/06/03 11:17:26;;;;;;;4.20;3.90;;;22.10;59.50;;;;;;5082769;28;45155;-69
2023/06/03 11:19:55;;;;;;;4.40;4.03;;;22.00;59.60;;;;;;5081854;28;44035;-69
2023/06/03 11:22:42;;;;;;;4.23;3.43;;;22.10;58.90;;;;;;5082764;28;43457;-69
2023/06/03 11:25:26;;;;;;;4.67;4.27;;;22.00;59.20;;;;;;5080019;28;43623;-69
2023/06/03 11:27:55;;;;;;;4.60;3.97;;;22.00;59.30;;;;;;5080947;28;43521;-70
2023/06/03 11:30:23;;;;;;;3.93;3.63;;;21.90;60.00;;;;;;5080870;27;43989;-70
2023/06/03 11:33:11;;;;;;;4.20;3.80;;;21.90;59.60;;;;;;5085704;28;43444;-70
2023/06/03 11:35:39;;;;;;;4.10;3.67;;;21.90;59.40;;;;;;5082997;28;43840;-70
2023/06/03 11:38:07;;;;;;;4.73;4.33;;;21.90;59.40;;;;;;5076678;27;43937;-74
2023/06/03 11:40:47;;;;;;;4.57;4.20;;;21.90;59.80;;;;;;5081104;27;43973;-70
2023/06/03 11:43:15;;;;;;;4.13;3.83;;;21.90;60.20;;;;;;5082247;28;43821;-70
2023/06/03 11:45:43;;;;;;;3.90;3.60;;;22.00;60.30;;;;;;5081332;27;43610;-71
2023/06/03 11:48:15;;;;;;;3.73;3.50;;;22.10;60.10;;;;;;5084401;28;43404;-70
2023/06/03 11:50:48;;;;;;;4.23;3.93;;;22.20;59.80;;;;;;5080420;28;43499;-70
2023/06/03 11:53:30;;;;;;;3.53;3.33;;;22.20;59.60;;;;;;5082357;27;43419;-70
2023/06/03 11:56:05;;;;;;;3.70;3.50;;;22.20;59.20;;;;;;5082839;28;43780;-69
2023/06/03 11:58:33;;;;;;;3.70;3.50;;;22.10;58.90;;;;;;5089385;28;43524;-71
2023/06/03 12:01:08;;;;;;;3.50;3.40;;;22.10;59.70;;;;;;5087765;27;43463;-70
2023/06/03 12:03:38;;;;;;;3.50;3.30;;;22.00;59.30;;;;;;5085294;28;43399;-70
2023/06/03 12:06:06;;;;;;;3.60;3.40;;;22.00;59.40;;;;;;5087851;28;44401;-70
2023/06/03 12:08:45;;;;;;;3.70;3.40;;;22.00;59.40;;;;;;5088888;27;43533;-69
2023/06/03 12:11:25;;;;;;;3.70;3.40;;;22.00;59.50;;;;;;5089543;27;43912;-69
2023/06/03 12:13:53;;;;;;;3.50;3.30;;;21.90;60.00;;;;;;5089742;28;43589;-70
2023/06/03 12:16:29;;;;;;;3.70;3.50;;;21.90;59.60;;;;;;5084033;28;43957;-69
2023/06/03 12:19:00;;;;;;;3.90;3.60;;;22.00;59.70;;;;;;5084025;28;43531;-69
2023/06/03 12:21:28;;;;;;;4.77;3.80;;;21.90;59.70;;;;;;5087985;28;43511;-70
2023/06/03 12:23:57;;;;;;;4.17;3.40;;;21.90;59.70;;;;;;5087699;27;43834;-70
2023/06/03 12:26:25;;;;;;;4.07;3.50;;;21.90;60.50;;;;;;5088897;27;43862;-69
2023/06/03 12:28:54;;;;;;;3.60;3.40;;;22.00;60.10;;;;;;5088886;27;43951;-69
2023/06/03 12:31:22;;;;;;;3.57;3.20;;;22.00;59.90;;;;;;5088668;28;43494;-70
2023/06/03 12:33:51;;;;;;;3.50;3.40;;;22.00;59.20;;;;;;5089453;27;43898;-69
2023/06/03 12:36:22;;;;;;;3.33;3.13;;;22.00;59.20;;;;;;5087236;28;45736;-69
2023/06/03 12:38:57;;;;;;;3.70;3.50;;;22.00;59.90;;;;;;5089276;27;43857;-69
2023/06/03 12:41:25;;;;;;;3.80;3.60;;;22.00;60.00;;;;;;5085671;28;43383;-70
2023/06/03 12:43:59;;;;;;;3.53;3.33;;;22.00;59.50;;;;;;5088794;28;43367;-70
2023/06/03 12:46:28;;;;;;;3.87;3.57;;;22.00;59.40;;;;;;5089016;28;43715;-70
2023/06/03 12:48:58;;;;;;;3.53;3.33;;;22.00;59.40;;;;;;5088161;27;43437;-70
2023/06/03 12:51:28;;;;;;;3.60;3.40;;;21.90;60.10;;;;;;5088699;27;43363;-70
2023/06/03 12:53:57;;;;;;;3.63;3.43;;;22.00;60.50;;;;;;5088155;27;43347;-70
2023/06/03 12:56:25;;;;;;;3.73;3.27;;;22.00;60.10;;;;;;5086882;28;45639;-70
2023/06/03 12:58:53;;;;;;;3.10;3.00;;;22.10;59.40;;;;;;5087960;27;43912;-70
2023/06/03 13:01:21;;;;;;;3.53;3.33;;;22.00;59.30;;;;;;5088629;27;43388;-70